createdAt,value
2023-05-10T00:00:04.918Z,14.98
2023-05-10T00:00:17.037Z,14.98
2023-05-10T00:00:27.831Z,14.98
2023-05-10T00:00:39.552Z,14.97
2023-05-10T00:00:50.294Z,14.97
2023-05-10T00:01:02.053Z,14.97
2023-05-10T00:01:13.779Z,14.97
2023-05-10T00:01:26.251Z,14.97
2023-05-10T00:01:38.476Z,14.95
2023-05-10T00:01:50.276Z,14.95
2023-05-10T00:02:01.033Z,14.95
2023-05-10T00:02:13.821Z,14.95
2023-05-10T00:02:24.775Z,14.95
2023-05-10T00:02:36.950Z,14.95
2023-05-10T00:02:50.341Z,14.95
2023-05-10T00:03:02.086Z,14.93
2023-05-10T00:03:14.718Z,14.94
2023-05-10T00:03:25.658Z,14.93
2023-05-10T00:03:37.844Z,14.94
2023-05-10T00:03:49.596Z,14.93
2023-05-10T00:04:00.446Z,14.93
2023-05-10T00:04:11.194Z,14.93
2023-05-10T00:04:21.990Z,14.94
2023-05-10T00:04:33.676Z,14.94
2023-05-10T00:04:45.349Z,14.94
2023-05-10T00:04:57.859Z,14.93
2023-05-10T00:05:08.575Z,14.93
2023-05-10T00:05:20.531Z,14.94
2023-05-10T00:05:31.238Z,14.91
2023-05-10T00:05:41.980Z,14.93
2023-05-10T00:05:52.818Z,14.93
2023-05-10T00:06:03.520Z,14.93
2023-05-10T00:06:15.942Z,14.93
2023-05-10T00:06:26.716Z,14.93
2023-05-10T00:06:38.386Z,14.93
2023-05-10T00:06:50.125Z,14.91
2023-05-10T00:07:00.933Z,14.91
2023-05-10T00:07:12.671Z,14.91
2023-05-10T00:07:24.369Z,14.93
2023-05-10T00:07:35.159Z,14.93
2023-05-10T00:07:47.605Z,14.91
2023-05-10T00:08:00.038Z,14.91
2023-05-10T00:08:13.208Z,14.91
2023-05-10T00:08:24.729Z,14.91
2023-05-10T00:08:35.482Z,14.90
2023-05-10T00:08:46.332Z,14.91
2023-05-10T00:08:57.095Z,14.91
2023-05-10T00:09:09.298Z,14.91
2023-05-10T00:09:19.997Z,14.91
2023-05-10T00:09:31.730Z,14.90
2023-05-10T00:09:43.394Z,14.91
2023-05-10T00:09:55.853Z,14.90
2023-05-10T00:10:06.607Z,14.90
2023-05-10T00:10:17.504Z,14.87
2023-05-10T00:10:30.120Z,14.90
2023-05-10T00:10:40.813Z,14.90
2023-05-10T00:10:51.560Z,14.87
2023-05-10T00:11:02.321Z,14.90
2023-05-10T00:11:13.019Z,14.87
2023-05-10T00:11:25.526Z,14.90
2023-05-10T00:11:36.247Z,14.87
2023-05-10T00:11:46.986Z,14.87
2023-05-10T00:11:58.769Z,14.87
2023-05-10T00:12:09.485Z,14.86
2023-05-10T00:12:20.201Z,14.87
2023-05-10T00:12:31.870Z,14.86
2023-05-10T00:12:44.621Z,14.86
2023-05-10T00:12:57.035Z,14.86
2023-05-10T00:13:09.659Z,14.86
2023-05-10T00:13:20.388Z,14.85
2023-05-10T00:13:31.193Z,14.85
2023-05-10T00:13:42.978Z,14.85
2023-05-10T00:13:53.658Z,14.83
2023-05-10T00:14:04.424Z,14.83
2023-05-10T00:14:15.492Z,14.83
2023-05-10T00:14:26.208Z,14.80
2023-05-10T00:14:37.892Z,14.82
2023-05-10T00:14:49.594Z,14.82
2023-05-10T00:15:01.283Z,14.80
2023-05-10T00:15:12.007Z,14.79
2023-05-10T00:15:22.763Z,14.80
2023-05-10T00:15:34.477Z,14.79
2023-05-10T00:15:45.179Z,14.80
2023-05-10T00:15:55.925Z,14.79
2023-05-10T00:16:08.399Z,14.79
2023-05-10T00:16:20.839Z,14.79
2023-05-10T00:16:31.690Z,14.79
2023-05-10T00:16:42.467Z,14.78
2023-05-10T00:16:53.299Z,14.79
2023-05-10T00:17:04.122Z,14.79
2023-05-10T00:17:17.317Z,14.78
2023-05-10T00:17:28.124Z,14.78
2023-05-10T00:17:38.876Z,14.78
2023-05-10T00:17:50.669Z,14.79
2023-05-10T00:18:03.184Z,14.78
2023-05-10T00:18:13.901Z,14.79
2023-05-10T00:18:24.599Z,14.78
2023-05-10T00:18:35.299Z,14.79
2023-05-10T00:18:46.993Z,14.78
2023-05-10T00:18:58.705Z,14.78
2023-05-10T00:19:09.414Z,14.78
2023-05-10T00:19:20.204Z,14.78
2023-05-10T00:19:30.955Z,14.78
2023-05-10T00:19:41.665Z,14.78
2023-05-10T00:19:52.454Z,14.78
2023-05-10T00:20:03.143Z,14.79
2023-05-10T00:20:15.099Z,14.79
2023-05-10T00:20:25.986Z,14.79
2023-05-10T00:20:38.389Z,14.78
2023-05-10T00:20:49.097Z,14.79
2023-05-10T00:20:59.826Z,14.79
2023-05-10T00:21:11.578Z,14.79
2023-05-10T00:21:22.363Z,14.79
2023-05-10T00:21:33.131Z,14.79
2023-05-10T00:21:45.502Z,14.79
2023-05-10T00:21:57.922Z,14.79
2023-05-10T00:22:08.652Z,14.78
2023-05-10T00:22:21.090Z,14.78
2023-05-10T00:22:31.807Z,14.78
2023-05-10T00:22:43.477Z,14.79
2023-05-10T00:22:55.912Z,14.79
2023-05-10T00:23:06.644Z,14.75
2023-05-10T00:23:19.838Z,14.78
2023-05-10T00:23:30.602Z,14.75
2023-05-10T00:23:41.324Z,14.75
2023-05-10T00:23:52.055Z,14.75
2023-05-10T00:24:02.751Z,14.74
2023-05-10T00:24:13.502Z,14.75
2023-05-10T00:24:25.916Z,14.75
2023-05-10T00:24:38.840Z,14.75
2023-05-10T00:24:51.251Z,14.75
2023-05-10T00:25:02.046Z,14.75
2023-05-10T00:25:12.774Z,14.74
2023-05-10T00:25:23.503Z,14.74
2023-05-10T00:25:34.217Z,14.72
2023-05-10T00:25:45.017Z,14.74
2023-05-10T00:25:55.784Z,14.74
2023-05-10T00:26:06.502Z,14.74
2023-05-10T00:26:17.217Z,14.74
2023-05-10T00:26:27.966Z,14.74
2023-05-10T00:26:39.650Z,14.75
2023-05-10T00:26:51.393Z,14.72
2023-05-10T00:27:03.550Z,14.72
2023-05-10T00:27:14.315Z,14.72
2023-05-10T00:27:26.756Z,14.72
2023-05-10T00:27:37.443Z,14.72
2023-05-10T00:27:48.149Z,14.72
2023-05-10T00:28:00.568Z,14.72
2023-05-10T00:28:13.008Z,14.71
2023-05-10T00:28:25.409Z,14.72
2023-05-10T00:28:36.187Z,14.72
2023-05-10T00:28:46.911Z,14.72
2023-05-10T00:28:58.627Z,14.71
2023-05-10T00:29:11.786Z,14.72
2023-05-10T00:29:22.528Z,14.72
2023-05-10T00:29:33.297Z,14.72
2023-05-10T00:29:46.930Z,14.72
2023-05-10T00:29:58.621Z,14.72
2023-05-10T00:30:09.392Z,14.72
2023-05-10T00:30:21.083Z,14.72
2023-05-10T00:30:33.473Z,14.72
2023-05-10T00:30:46.692Z,14.72
2023-05-10T00:30:57.360Z,14.74
2023-05-10T00:31:09.776Z,14.72
2023-05-10T00:31:20.475Z,14.72
2023-05-10T00:31:32.929Z,14.72
2023-05-10T00:31:45.411Z,14.72
2023-05-10T00:31:56.214Z,14.72
2023-05-10T00:32:08.161Z,14.72
2023-05-10T00:32:18.990Z,14.74
2023-05-10T00:32:29.794Z,14.72
2023-05-10T00:32:43.537Z,14.74
2023-05-10T00:32:56.431Z,14.72
2023-05-10T00:33:07.253Z,14.72
2023-05-10T00:33:17.995Z,14.72
2023-05-10T00:33:28.762Z,14.72
2023-05-10T00:33:41.911Z,14.72
2023-05-10T00:33:55.626Z,14.72
2023-05-10T00:34:06.360Z,14.74
2023-05-10T00:34:17.129Z,14.72
2023-05-10T00:34:29.068Z,14.74
2023-05-10T00:34:40.732Z,14.72
2023-05-10T00:34:51.435Z,14.72
2023-05-10T00:35:03.971Z,14.72
2023-05-10T00:35:14.742Z,14.71
2023-05-10T00:35:25.454Z,14.72
2023-05-10T00:35:38.686Z,14.72
2023-05-10T00:35:50.351Z,14.71
2023-05-10T00:36:01.042Z,14.71
2023-05-10T00:36:12.735Z,14.71
2023-05-10T00:36:23.435Z,14.71
2023-05-10T00:36:36.645Z,14.71
2023-05-10T00:36:48.277Z,14.71
2023-05-10T00:36:59.028Z,14.69
2023-05-10T00:37:11.273Z,14.71
2023-05-10T00:37:21.980Z,14.71
2023-05-10T00:37:33.890Z,14.69
2023-05-10T00:37:47.098Z,14.69
2023-05-10T00:37:59.512Z,14.69
2023-05-10T00:38:10.227Z,14.71
2023-05-10T00:38:23.337Z,14.67
2023-05-10T00:38:35.042Z,14.69
2023-05-10T00:38:45.743Z,14.67
2023-05-10T00:38:57.413Z,14.67
2023-05-10T00:39:09.850Z,14.67
2023-05-10T00:39:20.583Z,14.67
2023-05-10T00:39:31.334Z,14.67
2023-05-10T00:39:42.036Z,14.67
2023-05-10T00:39:52.724Z,14.66
2023-05-10T00:40:04.468Z,14.67
2023-05-10T00:40:16.328Z,14.67
2023-05-10T00:40:28.631Z,14.64
2023-05-10T00:40:39.450Z,14.66
2023-05-10T00:40:51.828Z,14.66
2023-05-10T00:41:03.318Z,14.67
2023-05-10T00:41:14.097Z,14.66
2023-05-10T00:41:25.788Z,14.66
2023-05-10T00:41:36.548Z,14.66
2023-05-10T00:41:47.320Z,14.64
2023-05-10T00:41:58.015Z,14.66
2023-05-10T00:42:10.261Z,14.64
2023-05-10T00:42:22.662Z,14.64
2023-05-10T00:42:35.318Z,14.63
2023-05-10T00:42:46.010Z,14.63
2023-05-10T00:42:56.751Z,14.63
2023-05-10T00:43:08.902Z,14.61
2023-05-10T00:43:20.646Z,14.63
2023-05-10T00:43:31.398Z,14.61
2023-05-10T00:43:42.109Z,14.60
2023-05-10T00:43:52.840Z,14.60
2023-05-10T00:44:05.781Z,14.60
2023-05-10T00:44:18.182Z,14.60
2023-05-10T00:44:29.850Z,14.60
2023-05-10T00:44:41.606Z,14.60
2023-05-10T00:44:53.271Z,14.59
2023-05-10T00:45:05.498Z,14.59
2023-05-10T00:45:17.184Z,14.57
2023-05-10T00:45:27.889Z,14.59
2023-05-10T00:45:39.635Z,14.59
2023-05-10T00:45:51.424Z,14.57
2023-05-10T00:46:03.873Z,14.57
2023-05-10T00:46:14.652Z,14.57
2023-05-10T00:46:25.430Z,14.57
2023-05-10T00:46:37.156Z,14.56
2023-05-10T00:46:47.877Z,14.56
2023-05-10T00:46:59.536Z,14.53
2023-05-10T00:47:11.272Z,14.56
2023-05-10T00:47:22.045Z,14.54
2023-05-10T00:47:32.770Z,14.54
2023-05-10T00:47:43.475Z,14.53
2023-05-10T00:47:56.296Z,14.53
2023-05-10T00:48:08.790Z,14.52
2023-05-10T00:48:19.503Z,14.53
2023-05-10T00:48:30.201Z,14.52
2023-05-10T00:48:41.875Z,14.52
2023-05-10T00:48:52.586Z,14.52
2023-05-10T00:49:03.340Z,14.52
2023-05-10T00:49:14.060Z,14.49
2023-05-10T00:49:24.742Z,14.49
2023-05-10T00:49:37.923Z,14.49
2023-05-10T00:49:50.358Z,14.48
2023-05-10T00:50:02.171Z,14.46
2023-05-10T00:50:15.278Z,14.46
2023-05-10T00:50:27.838Z,14.45
2023-05-10T00:50:38.552Z,14.42
2023-05-10T00:50:50.222Z,14.42
2023-05-10T00:51:01.909Z,14.41
2023-05-10T00:51:14.296Z,14.39
2023-05-10T00:51:27.010Z,14.39
2023-05-10T00:51:37.823Z,14.35
2023-05-10T00:51:49.529Z,14.36
2023-05-10T00:52:01.942Z,14.34
2023-05-10T00:52:13.713Z,14.35
2023-05-10T00:52:26.648Z,14.31
2023-05-10T00:52:37.391Z,14.31
2023-05-10T00:52:49.857Z,14.30
2023-05-10T00:53:02.991Z,14.29
2023-05-10T00:53:13.750Z,14.27
2023-05-10T00:53:26.142Z,14.26
2023-05-10T00:53:36.851Z,14.26
2023-05-10T00:53:47.562Z,14.24
2023-05-10T00:53:58.271Z,14.23
2023-05-10T00:54:08.964Z,14.24
2023-05-10T00:54:21.384Z,14.23
2023-05-10T00:54:34.564Z,14.21
2023-05-10T00:54:46.232Z,14.20
2023-05-10T00:54:56.981Z,14.19
2023-05-10T00:55:09.400Z,14.19
2023-05-10T00:55:20.135Z,14.17
2023-05-10T00:55:30.868Z,14.16
2023-05-10T00:55:43.359Z,14.16
2023-05-10T00:55:54.060Z,14.13
2023-05-10T00:56:06.490Z,14.12
2023-05-10T00:56:17.267Z,14.11
2023-05-10T00:56:27.975Z,14.09
2023-05-10T00:56:41.161Z,14.08
2023-05-10T00:56:51.905Z,14.08
2023-05-10T00:57:04.088Z,14.06
2023-05-10T00:57:16.580Z,14.04
2023-05-10T00:57:27.289Z,14.01
2023-05-10T00:57:38.041Z,14.02
2023-05-10T00:57:50.490Z,13.99
2023-05-10T00:58:02.237Z,13.98
2023-05-10T00:58:12.998Z,13.96
2023-05-10T00:58:23.717Z,13.96
2023-05-10T00:58:35.420Z,13.93
2023-05-10T00:58:46.126Z,13.91
2023-05-10T00:58:56.849Z,13.91
2023-05-10T00:59:07.573Z,13.90
2023-05-10T00:59:19.270Z,13.88
2023-05-10T00:59:29.966Z,13.87
2023-05-10T00:59:41.626Z,13.86
2023-05-10T00:59:52.362Z,13.84
2023-05-10T01:00:04.522Z,13.84
2023-05-10T01:00:16.415Z,13.84
2023-05-10T01:00:27.237Z,13.83
2023-05-10T01:00:37.904Z,13.80
2023-05-10T01:00:48.657Z,13.80
2023-05-10T01:00:59.366Z,13.80
2023-05-10T01:01:10.100Z,13.79
2023-05-10T01:01:20.854Z,13.76
2023-05-10T01:01:31.692Z,13.75
2023-05-10T01:01:42.434Z,13.75
2023-05-10T01:01:53.112Z,13.73
2023-05-10T01:02:03.917Z,13.73
2023-05-10T01:02:17.187Z,13.72
2023-05-10T01:02:29.459Z,13.72
2023-05-10T01:02:40.190Z,13.71
2023-05-10T01:02:51.234Z,13.71
2023-05-10T01:03:03.868Z,13.69
2023-05-10T01:03:14.875Z,13.68
2023-05-10T01:03:26.702Z,13.66
2023-05-10T01:03:37.416Z,13.65
2023-05-10T01:03:49.143Z,13.65
2023-05-10T01:03:59.876Z,13.65
2023-05-10T01:04:12.568Z,13.63
2023-05-10T01:04:23.280Z,13.62
2023-05-10T01:04:34.998Z,13.62
2023-05-10T01:04:47.452Z,13.61
2023-05-10T01:05:01.117Z,13.59
2023-05-10T01:05:11.838Z,13.57
2023-05-10T01:05:22.878Z,13.57
2023-05-10T01:05:35.391Z,13.55
2023-05-10T01:05:47.819Z,13.55
2023-05-10T01:06:00.377Z,13.55
2023-05-10T01:06:11.076Z,13.54
2023-05-10T01:06:21.800Z,13.55
2023-05-10T01:06:33.953Z,13.55
2023-05-10T01:06:45.688Z,13.55
2023-05-10T01:06:56.384Z,13.54
2023-05-10T01:07:07.073Z,13.55
2023-05-10T01:07:17.878Z,13.54
2023-05-10T01:07:30.400Z,13.55
2023-05-10T01:07:42.185Z,13.54
2023-05-10T01:07:53.873Z,13.53
2023-05-10T01:08:04.570Z,13.54
2023-05-10T01:08:15.320Z,13.54
2023-05-10T01:08:27.097Z,13.54
2023-05-10T01:08:39.485Z,13.53
2023-05-10T01:08:51.891Z,13.54
2023-05-10T01:09:05.623Z,13.53
2023-05-10T01:09:16.309Z,13.53
2023-05-10T01:09:27.024Z,13.54
2023-05-10T01:09:38.732Z,13.54
2023-05-10T01:09:49.414Z,13.53
2023-05-10T01:10:00.128Z,13.53
2023-05-10T01:10:11.861Z,13.51
2023-05-10T01:10:22.622Z,13.53
2023-05-10T01:10:34.292Z,13.53
2023-05-10T01:10:45.958Z,13.51
2023-05-10T01:10:57.674Z,13.51
2023-05-10T01:11:09.394Z,13.51
2023-05-10T01:11:20.054Z,13.53
2023-05-10T01:11:30.786Z,13.53
2023-05-10T01:11:41.488Z,13.51
2023-05-10T01:11:52.233Z,13.51
2023-05-10T01:12:02.999Z,13.53
2023-05-10T01:12:15.437Z,13.53
2023-05-10T01:12:27.213Z,13.51
2023-05-10T01:12:38.974Z,13.53
2023-05-10T01:12:49.838Z,13.51
2023-05-10T01:13:00.576Z,13.51
2023-05-10T01:13:11.332Z,13.53
2023-05-10T01:13:23.094Z,13.51
2023-05-10T01:13:38.354Z,13.51
2023-05-10T01:13:50.099Z,13.51
2023-05-10T01:14:01.836Z,13.50
2023-05-10T01:14:15.054Z,13.51
2023-05-10T01:14:25.733Z,13.48
2023-05-10T01:14:37.460Z,13.50
2023-05-10T01:14:49.136Z,13.50
2023-05-10T01:15:02.305Z,13.51
2023-05-10T01:15:15.187Z,13.51
2023-05-10T01:15:25.988Z,13.50
2023-05-10T01:15:37.766Z,13.50
2023-05-10T01:15:48.541Z,13.50
2023-05-10T01:15:59.285Z,13.51
2023-05-10T01:16:11.301Z,13.51
2023-05-10T01:16:22.169Z,13.51
2023-05-10T01:16:35.981Z,13.51
2023-05-10T01:16:46.658Z,13.51
2023-05-10T01:16:58.342Z,13.51
2023-05-10T01:17:10.549Z,13.50
2023-05-10T01:17:21.240Z,13.51
2023-05-10T01:17:33.634Z,13.51
2023-05-10T01:17:44.420Z,13.51
2023-05-10T01:17:55.187Z,13.51
2023-05-10T01:18:07.838Z,13.51
2023-05-10T01:18:19.594Z,13.50
2023-05-10T01:18:30.335Z,13.51
2023-05-10T01:18:41.070Z,13.51
2023-05-10T01:18:51.816Z,13.53
2023-05-10T01:19:03.499Z,13.51
2023-05-10T01:19:16.213Z,13.50
2023-05-10T01:19:26.954Z,13.51
2023-05-10T01:19:40.114Z,13.51
2023-05-10T01:19:50.805Z,13.51
2023-05-10T01:20:02.984Z,13.51
2023-05-10T01:20:13.833Z,13.50
2023-05-10T01:20:26.339Z,13.51
2023-05-10T01:20:38.041Z,13.53
2023-05-10T01:20:48.761Z,13.53
2023-05-10T01:20:59.447Z,13.53
2023-05-10T01:21:10.178Z,13.53
2023-05-10T01:21:20.884Z,13.51
2023-05-10T01:21:32.611Z,13.53
2023-05-10T01:21:44.254Z,13.51
2023-05-10T01:21:54.962Z,13.53
2023-05-10T01:22:07.189Z,13.51
2023-05-10T01:22:20.376Z,13.50
2023-05-10T01:22:31.075Z,13.50
2023-05-10T01:22:41.820Z,13.51
2023-05-10T01:22:52.501Z,13.50
2023-05-10T01:23:04.175Z,13.50
2023-05-10T01:23:16.612Z,13.50
2023-05-10T01:23:27.286Z,13.50
2023-05-10T01:23:37.981Z,13.50
2023-05-10T01:23:49.910Z,13.48
2023-05-10T01:24:04.119Z,13.50
2023-05-10T01:24:16.568Z,13.48
2023-05-10T01:24:28.332Z,13.48
2023-05-10T01:24:40.766Z,13.48
2023-05-10T01:24:53.170Z,13.48
2023-05-10T01:25:03.861Z,13.48
2023-05-10T01:25:16.308Z,13.47
2023-05-10T01:25:28.776Z,13.46
2023-05-10T01:25:41.175Z,13.48
2023-05-10T01:25:51.887Z,13.47
2023-05-10T01:26:03.536Z,13.46
2023-05-10T01:26:16.720Z,13.46
2023-05-10T01:26:30.432Z,13.46
2023-05-10T01:26:43.623Z,13.46
2023-05-10T01:26:56.052Z,13.47
2023-05-10T01:27:08.980Z,13.47
2023-05-10T01:27:19.747Z,13.47
2023-05-10T01:27:30.549Z,13.46
2023-05-10T01:27:42.217Z,13.47
2023-05-10T01:27:53.952Z,13.47
2023-05-10T01:28:05.634Z,13.47
2023-05-10T01:28:17.352Z,13.47
2023-05-10T01:28:29.764Z,13.46
2023-05-10T01:28:41.470Z,13.48
2023-05-10T01:28:52.211Z,13.47
2023-05-10T01:29:03.943Z,13.47
2023-05-10T01:29:16.437Z,13.47
2023-05-10T01:29:27.227Z,13.48
2023-05-10T01:29:39.636Z,13.47
2023-05-10T01:30:01.425Z,13.47
2023-05-10T01:30:15.657Z,13.48
2023-05-10T01:31:00.664Z,0.00
2023-05-10T01:31:13.857Z,13.48
2023-05-10T01:31:24.602Z,13.50
2023-05-10T01:31:36.345Z,13.50
2023-05-10T01:31:48.063Z,13.50
2023-05-10T01:31:58.743Z,13.51
2023-05-10T01:32:09.524Z,13.50
2023-05-10T01:32:20.212Z,13.50
2023-05-10T01:32:31.054Z,13.50
2023-05-10T01:32:42.792Z,13.51
2023-05-10T01:32:53.534Z,13.51
2023-05-10T01:33:04.312Z,13.51
2023-05-10T01:33:14.993Z,13.51
2023-05-10T01:33:27.418Z,13.53
2023-05-10T01:33:39.111Z,13.53
2023-05-10T01:33:50.789Z,13.53
2023-05-10T01:34:02.725Z,13.53
2023-05-10T01:34:16.393Z,13.51
2023-05-10T01:34:28.350Z,13.53
2023-05-10T01:34:39.097Z,13.53
2023-05-10T01:34:51.834Z,13.53
2023-05-10T01:35:04.154Z,13.54
2023-05-10T01:35:17.776Z,13.54
2023-05-10T01:35:29.486Z,13.55
2023-05-10T01:35:41.875Z,13.53
2023-05-10T01:35:52.610Z,13.54
2023-05-10T01:36:04.329Z,13.55
2023-05-10T01:36:16.716Z,13.55
2023-05-10T01:36:28.420Z,13.55
2023-05-10T01:36:39.120Z,13.57
2023-05-10T01:36:50.841Z,13.57
2023-05-10T01:37:02.608Z,13.59
2023-05-10T01:37:14.812Z,13.57
2023-05-10T01:37:27.231Z,13.57
2023-05-10T01:37:37.966Z,13.57
2023-05-10T01:37:51.647Z,13.59
2023-05-10T01:38:03.909Z,13.61
2023-05-10T01:38:14.636Z,13.59
2023-05-10T01:38:25.326Z,13.61
2023-05-10T01:38:36.023Z,13.62
2023-05-10T01:38:48.214Z,13.61
2023-05-10T01:38:58.966Z,13.62
2023-05-10T01:39:11.417Z,13.62
2023-05-10T01:39:22.160Z,13.62
2023-05-10T01:39:32.917Z,13.61
2023-05-10T01:39:43.629Z,13.62
2023-05-10T01:39:54.333Z,13.62
2023-05-10T01:40:06.804Z,13.62
2023-05-10T01:40:18.506Z,13.61
2023-05-10T01:40:30.244Z,13.62
2023-05-10T01:40:43.459Z,13.62
2023-05-10T01:40:55.164Z,13.63
2023-05-10T01:41:05.844Z,13.62
2023-05-10T01:41:17.566Z,13.61
2023-05-10T01:41:28.264Z,13.62
2023-05-10T01:41:38.960Z,13.62
2023-05-10T01:41:50.648Z,13.61
2023-05-10T01:42:01.343Z,13.59
2023-05-10T01:42:13.557Z,13.59
2023-05-10T01:42:25.211Z,13.61
2023-05-10T01:42:37.627Z,13.59
2023-05-10T01:42:48.342Z,13.57
2023-05-10T01:42:59.097Z,13.57
2023-05-10T01:43:11.250Z,13.57
2023-05-10T01:43:24.941Z,13.59
2023-05-10T01:43:36.676Z,13.57
2023-05-10T01:43:48.342Z,13.55
2023-05-10T01:43:59.048Z,13.55
2023-05-10T01:44:10.717Z,13.55
2023-05-10T01:44:21.512Z,13.54
2023-05-10T01:44:33.186Z,13.54
2023-05-10T01:44:46.387Z,13.54
2023-05-10T01:44:57.089Z,13.54
2023-05-10T01:45:09.788Z,13.53
2023-05-10T01:45:23.968Z,13.51
2023-05-10T01:45:35.677Z,13.53
2023-05-10T01:45:46.446Z,13.51
2023-05-10T01:45:58.984Z,13.51
2023-05-10T01:46:10.663Z,13.51
2023-05-10T01:46:23.883Z,13.51
2023-05-10T01:46:35.566Z,13.50
2023-05-10T01:46:47.258Z,13.48
2023-05-10T01:46:59.511Z,13.50
2023-05-10T01:47:12.758Z,13.50
2023-05-10T01:47:23.540Z,13.48
2023-05-10T01:47:35.997Z,13.48
2023-05-10T01:47:46.699Z,13.48
2023-05-10T01:47:59.475Z,13.48
2023-05-10T01:48:11.295Z,13.47
2023-05-10T01:48:22.961Z,13.47
2023-05-10T01:48:35.637Z,13.47
2023-05-10T01:48:46.347Z,13.47
2023-05-10T01:48:57.078Z,13.46
2023-05-10T01:49:07.763Z,13.46
2023-05-10T01:49:19.473Z,13.46
2023-05-10T01:49:30.183Z,13.46
2023-05-10T01:49:43.327Z,13.44
2023-05-10T01:49:56.993Z,13.44
2023-05-10T01:50:09.169Z,13.46
2023-05-10T01:50:19.942Z,13.44
2023-05-10T01:50:30.707Z,13.46
2023-05-10T01:50:41.419Z,13.44
2023-05-10T01:50:52.138Z,13.44
2023-05-10T01:51:03.854Z,13.44
2023-05-10T01:51:14.570Z,13.44
2023-05-10T01:51:25.303Z,13.43
2023-05-10T01:51:37.721Z,13.44
2023-05-10T01:51:50.912Z,13.44
2023-05-10T01:52:01.607Z,13.43
2023-05-10T01:52:12.327Z,13.43
2023-05-10T01:52:23.111Z,13.41
2023-05-10T01:52:35.060Z,13.43
2023-05-10T01:52:46.740Z,13.41
2023-05-10T01:52:59.670Z,13.41
2023-05-10T01:53:10.533Z,13.43
2023-05-10T01:53:22.701Z,13.43
2023-05-10T01:53:33.433Z,13.43
2023-05-10T01:53:44.249Z,13.41
2023-05-10T01:53:54.969Z,13.43
2023-05-10T01:54:06.764Z,13.41
2023-05-10T01:54:18.527Z,13.43
2023-05-10T01:54:29.239Z,13.43
2023-05-10T01:54:39.927Z,13.43
2023-05-10T01:54:50.641Z,13.41
2023-05-10T01:55:02.878Z,13.43
2023-05-10T01:55:14.779Z,13.43
2023-05-10T01:55:26.961Z,13.43
2023-05-10T01:55:37.672Z,13.43
2023-05-10T01:55:48.377Z,13.41
2023-05-10T01:55:59.120Z,13.43
2023-05-10T01:56:10.827Z,13.43
2023-05-10T01:56:22.556Z,13.43
2023-05-10T01:56:33.346Z,13.43
2023-05-10T01:56:45.009Z,13.44
2023-05-10T01:56:55.730Z,13.44
2023-05-10T01:57:08.419Z,13.43
2023-05-10T01:57:19.120Z,13.43
2023-05-10T01:57:29.800Z,13.43
2023-05-10T01:57:42.978Z,13.41
2023-05-10T01:57:54.663Z,13.43
2023-05-10T01:58:06.400Z,13.43
2023-05-10T01:58:18.837Z,13.44
2023-05-10T01:58:30.997Z,13.44
2023-05-10T01:58:44.176Z,13.44
2023-05-10T01:58:56.136Z,13.43
2023-05-10T01:59:06.845Z,13.44
2023-05-10T01:59:19.257Z,13.46
2023-05-10T01:59:30.932Z,13.44
2023-05-10T01:59:41.927Z,13.46
2023-05-10T01:59:55.089Z,13.46
2023-05-10T02:00:07.857Z,13.47
2023-05-10T02:00:20.061Z,13.46
2023-05-10T02:00:30.833Z,13.46
2023-05-10T02:00:41.482Z,13.47
2023-05-10T02:00:52.244Z,13.47
2023-05-10T02:01:03.127Z,13.47
2023-05-10T02:01:13.873Z,13.47
2023-05-10T02:01:25.507Z,13.47
2023-05-10T02:01:38.052Z,13.48
2023-05-10T02:01:48.764Z,13.47
2023-05-10T02:01:59.517Z,13.47
2023-05-10T02:02:10.230Z,13.47
2023-05-10T02:02:20.987Z,13.48
2023-05-10T02:02:32.643Z,13.47
2023-05-10T02:02:43.435Z,13.47
2023-05-10T02:02:54.175Z,13.47
2023-05-10T02:03:06.695Z,13.47
2023-05-10T02:03:17.486Z,13.48
2023-05-10T02:03:29.159Z,13.47
2023-05-10T02:03:40.871Z,13.47
2023-05-10T02:03:52.568Z,13.46
2023-05-10T02:04:06.347Z,13.46
2023-05-10T02:04:18.108Z,13.46
2023-05-10T02:04:30.525Z,13.46
2023-05-10T02:04:41.245Z,13.44
2023-05-10T02:04:51.946Z,13.44
2023-05-10T02:05:02.643Z,13.44
2023-05-10T02:05:15.054Z,13.44
2023-05-10T02:05:28.824Z,13.44
2023-05-10T02:05:41.301Z,13.44
2023-05-10T02:05:52.000Z,13.43
2023-05-10T02:06:04.439Z,13.43
2023-05-10T02:06:15.145Z,13.44
2023-05-10T02:06:25.926Z,13.41
2023-05-10T02:06:39.120Z,13.43
2023-05-10T02:06:51.387Z,13.41
2023-05-10T02:07:04.080Z,13.39
2023-05-10T02:07:16.513Z,13.38
2023-05-10T02:07:28.636Z,13.39
2023-05-10T02:07:40.295Z,13.39
2023-05-10T02:07:51.986Z,13.38
2023-05-10T02:08:02.724Z,13.38
2023-05-10T02:08:14.400Z,13.38
2023-05-10T02:08:25.117Z,13.36
2023-05-10T02:08:37.533Z,13.36
2023-05-10T02:08:50.426Z,13.35
2023-05-10T02:09:02.149Z,13.35
2023-05-10T02:09:13.844Z,13.32
2023-05-10T02:09:25.526Z,13.32
2023-05-10T02:09:37.938Z,13.32
2023-05-10T02:09:50.842Z,13.31
2023-05-10T02:10:01.578Z,13.31
2023-05-10T02:10:12.294Z,13.29
2023-05-10T02:10:25.495Z,13.29
2023-05-10T02:10:36.224Z,13.31
2023-05-10T02:10:47.906Z,13.29
2023-05-10T02:11:00.071Z,13.29
2023-05-10T02:11:11.828Z,13.27
2023-05-10T02:11:23.485Z,13.29
2023-05-10T02:11:34.227Z,13.28
2023-05-10T02:11:45.872Z,13.28
2023-05-10T02:11:56.555Z,13.27
2023-05-10T02:12:07.260Z,13.27
2023-05-10T02:12:20.437Z,13.27
2023-05-10T02:12:31.152Z,13.27
2023-05-10T02:12:41.831Z,13.25
2023-05-10T02:12:52.587Z,13.27
2023-05-10T02:13:04.447Z,13.25
2023-05-10T02:13:15.256Z,13.27
2023-05-10T02:13:26.011Z,13.27
2023-05-10T02:13:36.703Z,13.27
2023-05-10T02:13:49.111Z,13.25
2023-05-10T02:14:02.515Z,13.25
2023-05-10T02:14:14.182Z,13.27
2023-05-10T02:14:26.577Z,13.24
2023-05-10T02:14:37.310Z,13.24
2023-05-10T02:14:49.596Z,13.25
2023-05-10T02:15:00.277Z,13.24
2023-05-10T02:15:11.978Z,13.25
2023-05-10T02:15:22.662Z,13.25
2023-05-10T02:15:33.356Z,13.25
2023-05-10T02:15:45.848Z,13.25
2023-05-10T02:15:58.285Z,13.24
2023-05-10T02:16:10.266Z,13.24
2023-05-10T02:16:20.950Z,13.24
2023-05-10T02:16:31.862Z,13.24
2023-05-10T02:16:42.775Z,13.25
2023-05-10T02:16:53.472Z,13.25
2023-05-10T02:17:05.884Z,13.24
2023-05-10T02:17:19.586Z,13.25
2023-05-10T02:17:31.375Z,13.24
2023-05-10T02:17:42.160Z,13.27
2023-05-10T02:17:54.541Z,13.25
2023-05-10T02:18:05.331Z,13.27
2023-05-10T02:18:17.468Z,13.25
2023-05-10T02:18:28.164Z,13.25
2023-05-10T02:18:38.913Z,13.28
2023-05-10T02:18:49.610Z,13.27
2023-05-10T02:19:02.345Z,13.27
2023-05-10T02:19:14.722Z,13.27
2023-05-10T02:19:27.162Z,13.27
2023-05-10T02:19:38.853Z,13.28
2023-05-10T02:19:51.259Z,13.27
2023-05-10T02:20:03.678Z,13.29
2023-05-10T02:20:15.609Z,13.28
2023-05-10T02:20:27.404Z,13.29
2023-05-10T02:20:38.134Z,13.28
2023-05-10T02:20:48.896Z,13.29
2023-05-10T02:21:01.112Z,13.29
2023-05-10T02:21:11.801Z,13.31
2023-05-10T02:21:23.535Z,13.31
2023-05-10T02:21:35.955Z,13.31
2023-05-10T02:21:48.896Z,13.31
2023-05-10T02:22:02.090Z,13.35
2023-05-10T02:22:14.480Z,13.31
2023-05-10T02:22:25.216Z,13.35
2023-05-10T02:22:35.917Z,13.32
2023-05-10T02:22:46.620Z,13.32
2023-05-10T02:22:57.324Z,13.35
2023-05-10T02:23:08.067Z,13.32
2023-05-10T02:23:18.806Z,13.32
2023-05-10T02:23:29.555Z,13.35
2023-05-10T02:23:40.310Z,13.35
2023-05-10T02:23:51.009Z,13.35
2023-05-10T02:24:01.716Z,13.36
2023-05-10T02:24:14.140Z,13.36
2023-05-10T02:24:25.793Z,13.36
2023-05-10T02:24:36.524Z,13.36
2023-05-10T02:24:48.953Z,13.38
2023-05-10T02:24:59.676Z,13.38
2023-05-10T02:25:12.089Z,13.39
2023-05-10T02:25:22.820Z,13.39
2023-05-10T02:25:34.508Z,13.39
2023-05-10T02:25:46.239Z,13.38
2023-05-10T02:25:59.400Z,13.39
2023-05-10T02:26:11.380Z,13.39
2023-05-10T02:26:22.077Z,13.39
2023-05-10T02:26:32.766Z,13.41
2023-05-10T02:26:43.480Z,13.43
2023-05-10T02:26:55.159Z,13.41
2023-05-10T02:27:05.880Z,13.41
2023-05-10T02:27:18.061Z,13.43
2023-05-10T02:27:29.222Z,13.44
2023-05-10T02:27:40.930Z,13.44
2023-05-10T02:27:53.332Z,13.44
2023-05-10T02:28:05.129Z,13.44
2023-05-10T02:28:15.888Z,13.44
2023-05-10T02:28:26.604Z,13.47
2023-05-10T02:28:38.781Z,13.46
2023-05-10T02:28:50.900Z,13.46
2023-05-10T02:29:01.608Z,13.46
2023-05-10T02:29:13.281Z,13.46
2023-05-10T02:29:24.014Z,13.47
2023-05-10T02:29:36.436Z,13.47